Time;durP1;ratioP1;P1;durP2;ratioP2;P2;SDS_P1;SDS_P2;PMS_P1;PMS_P2;Temp;Humidity;BMP_temperature;BMP_pressure;BME280_temperature;BME280_humidity;BME280_pressure;Samples;Min_cycle;Max_cycle;Signal;HPM_P1;HPM_P2
2021/03/04 00:01:57;;;;;;;;;;;;;;;18.48;66.42;102092.69;5090197;28;1248;-75
2021/03/04 00:04:23;;;;;;;;;;;;;;;18.46;66.31;102091.88;5089604;28;825;-76
2021/03/04 00:06:49;;;;;;;;;;;;;;;18.44;66.38;102089.31;5089803;28;1547;-74
2021/03/04 00:09:16;;;;;;;;;;;;;;;18.42;66.56;102090.28;5073491;28;1325;-74
2021/03/04 00:11:43;;;;;;;;;;;;;;;18.40;66.72;102082.41;5090368;28;1463;-75
2021/03/04 00:14:09;;;;;;;;;;;;;;;18.38;66.63;102086.88;5089696;28;935;-76
2021/03/04 00:16:36;;;;;;;;;;;;;;;18.37;66.57;102074.59;5071946;28;1914;-75
2021/03/04 00:19:03;;;;;;;;;;;;;;;18.37;66.61;102082.50;5090414;28;1194;-74
2021/03/04 00:21:29;;;;;;;;;;;;;;;18.36;66.47;102077.31;5071592;28;1317;-75
2021/03/04 00:23:55;;;;;;;;;;;;;;;18.36;66.51;102079.94;5089637;28;917;-75
2021/03/04 00:26:22;;;;;;;;;;;;;;;18.35;66.91;102076.44;5089686;28;1223;-74
2021/03/04 00:28:48;;;;;;;;;;;;;;;18.34;67.03;102068.56;5089404;28;1071;-74
2021/03/04 00:31:15;;;;;;;;;;;;;;;18.34;67.22;102071.19;5071078;28;1445;-74
2021/03/04 00:33:41;;;;;;;;;;;;;;;18.31;67.17;102058.97;5089676;28;774;-75
2021/03/04 00:36:07;;;;;;;;;;;;;;;18.30;67.33;102059.88;5089544;28;1910;-76
2021/03/04 00:38:33;;;;;;;;;;;;;;;18.31;67.21;102056.34;5089498;28;766;-75
2021/03/04 00:41:00;;;;;;;;;;;;;;;18.30;67.42;102056.41;5089619;28;1278;-75
2021/03/04 00:43:26;;;;;;;;;;;;;;;18.30;67.34;102057.25;5071230;28;778;-75
2021/03/04 00:45:52;;;;;;;;;;;;;;;18.29;67.35;102054.69;5089319;28;1338;-77
2021/03/04 00:48:19;;;;;;;;;;;;;;;18.28;67.59;102047.66;5071076;28;1188;-76
2021/03/04 00:50:46;;;;;;;;;;;;;;;18.28;67.44;102047.66;5089001;28;1330;-77
2021/03/04 00:53:32;;;;;;;;;;;;;;;18.27;67.69;102051.25;5088552;28;1570;-76
2021/03/04 00:55:58;;;;;;;;;;;;;;;18.27;67.65;102045.97;5088966;28;2336;-76
2021/03/04 00:58:24;;;;;;;;;;;;;;;18.27;67.55;102040.69;5088878;28;1015;-74
2021/03/04 01:00:51;;;;;;;;;;;;;;;18.25;67.61;102037.22;5070962;28;1241;-74
2021/03/04 01:03:17;;;;;;;;;;;;;;;18.24;67.59;102038.16;5070431;28;1395;-73
2021/03/04 01:05:44;;;;;;;;;;;;;;;18.24;67.87;102038.16;5089025;28;1217;-76
2021/03/04 01:08:11;;;;;;;;;;;;;;;18.24;67.78;102035.53;5088766;28;806;-75
2021/03/04 01:10:38;;;;;;;;;;;;;;;18.24;67.79;102039.00;5088680;28;1594;-74
2021/03/04 01:13:05;;;;;;;;;;;;;;;18.23;67.73;102032.00;5089173;28;1130;-75
2021/03/04 01:15:32;;;;;;;;;;;;;;;18.22;67.90;102027.66;5089204;28;1938;-75
2021/03/04 01:17:58;;;;;;;;;;;;;;;18.23;67.93;102025.88;5095308;28;762;-74
2021/03/04 01:20:26;;;;;;;;;;;;;;;18.23;67.95;102031.16;5097098;28;1248;-74
2021/03/04 01:22:52;;;;;;;;;;;;;;;18.21;67.98;102036.47;5097208;28;911;-76
2021/03/04 01:25:19;;;;;;;;;;;;;;;18.21;68.05;102030.34;5095665;28;1441;-75
2021/03/04 01:27:47;;;;;;;;;;;;;;;18.20;68.12;102028.63;5072174;28;1376;-74
2021/03/04 01:30:14;;;;;;;;;;;;;;;18.20;67.90;102037.41;5089620;28;1226;-75
2021/03/04 01:32:40;;;;;;;;;;;;;;;18.19;68.05;102021.59;5054584;28;1798;-73
2021/03/04 01:35:07;;;;;;;;;;;;;;;18.18;68.03;102023.38;5088793;28;1910;-74
2021/03/04 01:37:34;;;;;;;;;;;;;;;18.19;68.21;102018.97;5089575;28;912;-73
2021/03/04 01:40:00;;;;;;;;;;;;;;;18.17;68.18;102019.03;5070497;28;1280;-75
2021/03/04 01:42:26;;;;;;;;;;;;;;;18.16;68.31;102014.66;5088842;28;848;-74
2021/03/04 01:44:53;;;;;;;;;;;;;;;18.18;68.18;102017.28;5089196;28;1324;-75
2021/03/04 01:47:20;;;;;;;;;;;;;;;18.17;68.23;102010.25;5070960;28;1335;-76
2021/03/04 01:49:47;;;;;;;;;;;;;;;18.15;68.41;102005.03;5088915;28;987;-76
2021/03/04 01:52:13;;;;;;;;;;;;;;;18.14;68.46;102002.47;5070924;28;1398;-74
2021/03/04 01:54:40;;;;;;;;;;;;;;;18.16;68.25;102011.16;5089240;28;1922;-75
2021/03/04 01:57:06;;;;;;;;;;;;;;;18.14;68.37;101999.81;5088933;28;1216;-74
2021/03/04 01:59:33;;;;;;;;;;;;;;;18.14;68.43;101998.06;5090302;28;826;-75
2021/03/04 02:01:59;;;;;;;;;;;;;;;18.15;68.26;101993.66;5093856;28;1344;-76
2021/03/04 02:04:25;;;;;;;;;;;;;;;18.13;68.37;101988.41;5093048;28;770;-76
2021/03/04 02:07:01;;;;;;;;;;;;;;;18.12;68.38;101983.19;5092480;28;1317;-78
2021/03/04 02:09:30;;;;;;;;;;;;;;;18.12;68.48;101980.56;5057453;28;1189;-74
2021/03/04 02:12:16;;;;;;;;;;;;;;;18.12;68.52;101978.75;5092689;28;1583;-78
2021/03/04 02:14:56;;;;;;;;;;;;;;;18.12;68.47;101975.28;5092569;28;1913;-76
2021/03/04 02:17:26;;;;;;;;;;;;;;;18.12;68.39;101967.38;5092037;28;763;-76
2021/03/04 02:19:56;;;;;;;;;;;;;;;18.10;68.28;101966.56;5092414;28;1252;-76
2021/03/04 02:22:22;;;;;;;;;;;;;;;18.10;68.26;101959.50;5092108;28;1008;-76
2021/03/04 02:24:59;;;;;;;;;;;;;;;18.10;68.36;101954.22;5073374;28;1600;-75
2021/03/04 02:27:27;;;;;;;;;;;;;;;18.08;68.43;101955.22;5073528;28;1569;-77
2021/03/04 02:29:55;;;;;;;;;;;;;;;18.08;68.44;101949.94;5091984;28;1216;-76
2021/03/04 02:32:23;;;;;;;;;;;;;;;18.09;68.53;101941.13;5091334;28;786;-77
2021/03/04 02:34:54;;;;;;;;;;;;;;;18.07;68.53;101946.44;5072889;28;1979;-76
2021/03/04 02:37:21;;;;;;;;;;;;;;;18.07;68.66;101942.94;5091509;28;820;-76
2021/03/04 02:39:51;;;;;;;;;;;;;;;18.08;68.42;101939.38;5072824;28;1382;-77
2021/03/04 02:42:20;;;;;;;;;;;;;;;18.09;68.53;101941.13;5083122;28;751;-76
2021/03/04 02:44:47;;;;;;;;;;;;;;;18.07;68.42;101938.53;5091437;28;790;-77
2021/03/04 02:47:17;;;;;;;;;;;;;;;18.07;68.53;101929.75;5091368;28;1224;-78
2021/03/04 02:49:45;;;;;;;;;;;;;;;18.05;68.55;101923.66;5091420;28;816;-76
2021/03/04 02:52:12;;;;;;;;;;;;;;;18.05;68.70;101928.94;5072724;28;1350;-76
2021/03/04 02:54:38;;;;;;;;;;;;;;;18.06;68.51;101923.59;5091328;28;1918;-77
2021/03/04 02:57:06;;;;;;;;;;;;;;;18.06;68.60;101909.56;5056684;28;1272;-77
2021/03/04 02:59:33;;;;;;;;;;;;;;;18.05;68.58;101918.41;5090951;28;825;-77
2021/03/04 03:02:00;;;;;;;;;;;;;;;18.04;68.56;101901.72;5091550;28;1334;-77
2021/03/04 03:04:27;;;;;;;;;;;;;;;18.06;68.65;101899.00;5090798;28;1079;-76
2021/03/04 03:06:54;;;;;;;;;;;;;;;18.03;68.75;101895.56;5091127;28;1216;-76
2021/03/04 03:09:22;;;;;;;;;;;;;;;18.03;68.84;101898.22;5072467;28;1206;-75
2021/03/04 03:11:49;;;;;;;;;;;;;;;18.02;68.68;101896.47;5090404;28;1520;-74
2021/03/04 03:14:16;;;;;;;;;;;;;;;18.03;68.62;101890.31;5090745;28;1244;-74
2021/03/04 03:16:44;;;;;;;;;;;;;;;18.02;68.85;101893.84;5090808;28;1910;-75
2021/03/04 03:19:11;;;;;;;;;;;;;;;18.03;68.68;101892.94;5090570;28;1051;-75
2021/03/04 03:21:37;;;;;;;;;;;;;;;18.05;68.69;101884.13;5090755;28;1232;-75
2021/03/04 03:24:04;;;;;;;;;;;;;;;18.02;68.72;101883.28;5072104;28;1067;-76
2021/03/04 03:26:31;;;;;;;;;;;;;;;18.01;68.79;101873.69;5090697;28;1200;-75
2021/03/04 03:28:58;;;;;;;;;;;;;;;18.02;68.61;101878.03;5071875;28;1502;-76
2021/03/04 03:31:26;;;;;;;;;;;;;;;18.01;68.72;101881.59;5090159;28;1212;-76
2021/03/04 03:33:53;;;;;;;;;;;;;;;18.01;68.82;101876.31;5090407;28;802;-76
2021/03/04 03:36:21;;;;;;;;;;;;;;;18.01;68.88;101881.59;5090225;28;1914;-76
2021/03/04 03:38:47;;;;;;;;;;;;;;;18.00;68.75;101874.59;5090530;28;1039;-75
2021/03/04 03:41:16;;;;;;;;;;;;;;;18.02;68.70;101871.91;5071842;28;1356;-75
2021/03/04 03:43:43;;;;;;;;;;;;;;;18.01;68.82;101867.56;5090125;28;845;-76
2021/03/04 03:46:11;;;;;;;;;;;;;;;18.02;68.80;101866.66;5090384;28;1253;-76
2021/03/04 03:48:37;;;;;;;;;;;;;;;18.00;68.79;101871.09;5089886;28;940;-76
2021/03/04 03:51:04;;;;;;;;;;;;;;;17.98;68.77;101863.25;5071632;28;1253;-77
2021/03/04 03:53:31;;;;;;;;;;;;;;;18.00;68.74;101863.19;5089832;28;845;-77
2021/03/04 03:55:57;;;;;;;;;;;;;;;18.00;68.75;101864.03;5089791;28;2011;-77
2021/03/04 03:58:25;;;;;;;;;;;;;;;18.01;68.80;101863.16;5071736;28;838;-76
2021/03/04 04:00:55;;;;;;;;;;;;;;;17.99;68.85;101864.94;5089558;28;1199;-76
2021/03/04 04:03:25;;;;;;;;;;;;;;;17.98;68.83;101855.34;5071886;28;1186;-76
2021/03/04 04:05:52;;;;;;;;;;;;;;;17.98;68.85;101849.22;5089681;28;1338;-76
2021/03/04 04:08:19;;;;;;;;;;;;;;;17.98;68.94;101849.22;5071461;28;1196;-76
2021/03/04 04:10:47;;;;;;;;;;;;;;;17.97;69.01;101845.69;5089369;28;1474;-76
2021/03/04 04:13:20;;;;;;;;;;;;;;;17.97;68.77;101845.69;5055139;28;1253;-76
2021/03/04 04:15:47;;;;;;;;;;;;;;;17.97;68.92;101840.44;5089441;28;1937;-76
2021/03/04 04:18:15;;;;;;;;;;;;;;;17.97;68.85;101842.19;5089401;28;869;-76
2021/03/04 04:20:48;;;;;;;;;;;;;;;17.98;69.01;101834.25;5089721;28;1359;-76
2021/03/04 04:23:14;;;;;;;;;;;;;;;17.99;68.76;101841.22;5070439;28;822;-76
2021/03/04 04:25:51;;;;;;;;;;;;;;;17.97;68.93;101832.53;5089535;28;1283;-75
2021/03/04 04:28:18;;;;;;;;;;;;;;;17.96;68.84;101830.78;5089354;28;814;-75
2021/03/04 04:30:44;;;;;;;;;;;;;;;17.96;68.81;101835.22;5089216;28;1177;-75
2021/03/04 04:33:11;;;;;;;;;;;;;;;17.98;68.64;101836.03;5089216;28;829;-76
2021/03/04 04:35:37;;;;;;;;;;;;;;;17.96;68.94;101833.44;5071258;28;2009;-75
2021/03/04 04:38:04;;;;;;;;;;;;;;;17.96;68.90;101838.69;5089424;28;754;-75
2021/03/04 04:40:30;;;;;;;;;;;;;;;17.96;68.90;101835.22;5089135;28;1188;-76
2021/03/04 04:42:56;;;;;;;;;;;;;;;17.96;68.71;101829.97;5089393;28;754;-76
2021/03/04 04:45:22;;;;;;;;;;;;;;;17.94;68.87;101824.72;5089149;28;1234;-76
2021/03/04 04:47:49;;;;;;;;;;;;;;;17.95;68.80;101829.09;5089342;28;1091;-76
2021/03/04 04:50:15;;;;;;;;;;;;;;;17.94;68.79;101822.09;5089562;28;1321;-76
2021/03/04 04:52:42;;;;;;;;;;;;;;;17.95;68.60;101812.41;5071652;28;1038;-77
2021/03/04 04:55:09;;;;;;;;;;;;;;;17.96;68.69;101816.78;5089103;28;1906;-76
2021/03/04 04:57:35;;;;;;;;;;;;;;;17.95;68.72;101818.56;5088934;28;821;-76
2021/03/04 05:00:04;;;;;;;;;;;;;;;17.94;68.74;101813.31;5070743;28;1204;-76
2021/03/04 05:02:30;;;;;;;;;;;;;;;17.95;68.68;101812.41;5089011;28;1165;-76
2021/03/04 05:04:57;;;;;;;;;;;;;;;17.94;68.58;101815.94;5089144;28;1307;-77
2021/03/04 05:07:23;;;;;;;;;;;;;;;17.93;68.69;101807.19;5088889;28;1087;-76
2021/03/04 05:09:50;;;;;;;;;;;;;;;17.94;68.78;101808.91;5071035;28;1295;-76
2021/03/04 05:12:16;;;;;;;;;;;;;;;17.93;68.77;101807.19;5071108;28;1396;-77
2021/03/04 05:14:42;;;;;;;;;;;;;;;17.94;68.79;101803.63;5089419;28;817;-77
2021/03/04 05:17:09;;;;;;;;;;;;;;;17.93;68.76;101806.34;5070843;28;1250;-76
2021/03/04 05:19:35;;;;;;;;;;;;;;;17.94;68.67;101805.41;5070620;28;1197;-76
2021/03/04 05:22:01;;;;;;;;;;;;;;;17.93;68.78;101804.53;5087724;28;1286;-75
2021/03/04 05:24:28;;;;;;;;;;;;;;;17.91;68.75;101806.38;5088695;28;861;-75
2021/03/04 05:26:56;;;;;;;;;;;;;;;17.92;68.57;101802.84;5089035;28;1221;-75
2021/03/04 05:29:22;;;;;;;;;;;;;;;17.92;68.55;101807.25;5088711;28;1150;-74
2021/03/04 05:31:49;;;;;;;;;;;;;;;17.93;68.72;101808.97;5088336;28;1339;-76
2021/03/04 05:34:15;;;;;;;;;;;;;;;17.92;68.72;101799.34;5089043;28;831;-77
2021/03/04 05:36:42;;;;;;;;;;;;;;;17.92;68.47;101797.56;5091793;28;1907;-75
2021/03/04 05:39:08;;;;;;;;;;;;;;;17.92;68.53;101800.22;5074224;28;1285;-75
2021/03/04 05:41:34;;;;;;;;;;;;;;;17.91;68.64;101795.84;5092736;28;1216;-75
2021/03/04 05:44:01;;;;;;;;;;;;;;;17.91;68.46;101800.25;5092124;28;951;-75
2021/03/04 05:46:28;;;;;;;;;;;;;;;17.90;68.75;101794.13;5092433;28;1236;-76
2021/03/04 05:48:56;;;;;;;;;;;;;;;17.90;68.67;101794.13;5092261;28;778;-74
2021/03/04 05:51:24;;;;;;;;;;;;;;;17.92;68.64;101791.44;5092495;28;1360;-76
2021/03/04 05:53:53;;;;;;;;;;;;;;;17.90;68.65;101788.84;5092988;28;841;-76
2021/03/04 05:56:20;;;;;;;;;;;;;;;17.91;68.58;101792.34;5096806;28;1906;-76
2021/03/04 05:58:47;;;;;;;;;;;;;;;17.90;68.36;101786.19;5107993;28;872;-75
2021/03/04 06:01:13;;;;;;;;;;;;;;;17.90;68.52;101788.00;5086990;28;1318;-74
2021/03/04 06:03:40;;;;;;;;;;;;;;;17.88;68.52;101785.41;5102307;28;1190;-75
2021/03/04 06:06:06;;;;;;;;;;;;;;;17.89;68.52;101781.88;5092573;28;1328;-75
2021/03/04 06:08:33;;;;;;;;;;;;;;;17.88;68.65;101780.13;5092131;28;1079;-76
2021/03/04 06:11:04;;;;;;;;;;;;;;;17.91;68.48;101782.66;5073668;28;1474;-76
2021/03/04 06:13:30;;;;;;;;;;;;;;;17.88;68.66;101782.78;5093299;28;1087;-77
2021/03/04 06:15:57;;;;;;;;;;;;;;;17.89;68.23;101781.88;5091923;28;1926;-76
2021/03/04 06:18:25;;;;;;;;;;;;;;;17.87;68.25;101765.22;5091696;28;830;-75
2021/03/04 06:20:51;;;;;;;;;;;;;;;17.91;68.50;101768.63;5091773;28;1345;-75
2021/03/04 06:23:29;;;;;;;;;;;;;;;17.91;68.89;101765.97;5073656;28;1171;-75
2021/03/04 06:25:56;;;;;;;;;;;;;;;17.90;68.50;101767.75;5091498;28;1363;-77
2021/03/04 06:28:29;;;;;;;;;;;;;;;17.91;68.20;101764.22;5102406;28;1455;-76
2021/03/04 06:30:55;;;;;;;;;;;;;;;17.93;68.04;101767.63;5089274;28;1329;-75
2021/03/04 06:33:22;;;;;;;;;;;;;;;17.97;68.39;101758.72;5090403;28;1068;-74
2021/03/04 06:35:48;;;;;;;;;;;;;;;17.92;68.10;101765.94;5090340;28;1909;-75
2021/03/04 06:38:22;;;;;;;;;;;;;;;17.93;68.00;101764.16;5090083;28;778;-75
2021/03/04 06:40:50;;;;;;;;;;;;;;;17.94;67.87;101760.59;5090295;28;1390;-76
2021/03/04 06:43:20;;;;;;;;;;;;;;;17.93;68.53;101759.72;5090146;28;845;-76
2021/03/04 06:45:47;;;;;;;;;;;;;;;18.06;68.37;101759.25;5055069;28;1343;-76
2021/03/04 06:48:15;;;;;;;;;;;;;;;18.12;68.01;101761.69;5072037;28;806;-76
2021/03/04 06:50:42;;;;;;;;;;;;;;;18.01;68.13;101762.97;5090113;28;1219;-75
2021/03/04 06:53:10;;;;;;;;;;;;;;;17.95;68.10;101757.06;5088842;28;1362;-77
2021/03/04 06:55:46;;;;;;;;;;;;;;;17.93;68.19;101765.00;5090007;28;1922;-77
2021/03/04 06:58:13;;;;;;;;;;;;;;;17.96;68.98;101759.63;5089892;28;908;-76
2021/03/04 07:00:39;;;;;;;;;;;;;;;18.14;69.18;101770.41;5072198;28;1327;-75
2021/03/04 07:03:05;;;;;;;;;;;;;;;18.11;67.93;101759.97;5091180;28;1036;-76
2021/03/04 07:05:32;;;;;;;;;;;;;;;17.98;68.32;101762.22;5091204;28;1236;-77
2021/03/04 07:07:58;;;;;;;;;;;;;;;17.93;68.29;101759.72;5091032;28;837;-77
2021/03/04 07:10:26;;;;;;;;;;;;;;;17.93;68.34;101762.38;5072227;28;1502;-77
2021/03/04 07:12:53;;;;;;;;;;;;;;;17.91;68.42;101769.47;5090833;28;802;-77
2021/03/04 07:15:20;;;;;;;;;;;;;;;17.90;68.29;101759.84;5090875;28;1999;-77
2021/03/04 07:17:51;;;;;;;;;;;;;;;17.91;68.28;101761.56;5082960;28;1167;-76
2021/03/04 07:20:19;;;;;;;;;;;;;;;17.91;68.48;101764.22;5082146;28;1372;-77
2021/03/04 07:23:02;;;;;;;;;;;;;;;18.04;68.49;101764.63;5094481;28;1091;-77
2021/03/04 07:25:29;;;;;;;;;;;;;;;18.09;67.96;101761.81;5093742;28;1232;-74
2021/03/04 07:27:55;;;;;;;;;;;;;;;17.97;68.06;101763.13;5058162;28;1303;-74
2021/03/04 07:30:22;;;;;;;;;;;;;;;17.99;67.72;101761.31;5093423;28;1399;-75
2021/03/04 07:32:49;;;;;;;;;;;;;;;17.93;68.12;101769.44;5097642;28;2097;-74
2021/03/04 07:35:16;;;;;;;;;;;;;;;17.91;68.23;101765.97;5077577;28;1901;-74
2021/03/04 07:37:43;;;;;;;;;;;;;;;17.90;68.20;101756.38;5093773;28;1118;-73
2021/03/04 07:40:13;;;;;;;;;;;;;;;17.90;68.21;101766.91;5089813;28;1149;-74
2021/03/04 07:42:39;;;;;;;;;;;;;;;17.88;68.32;101761.69;5089806;28;782;-73
2021/03/04 07:45:13;;;;;;;;;;;;;;;17.87;68.44;101770.50;5070981;28;1333;-73
2021/03/04 07:47:40;;;;;;;;;;;;;;;17.88;68.40;101777.50;5089598;28;839;-74
2021/03/04 07:50:17;;;;;;;;;;;;;;;17.90;68.58;101782.72;5089359;28;1241;-74
2021/03/04 07:52:43;;;;;;;;;;;;;;;18.13;70.57;101776.56;5090365;28;951;-72
2021/03/04 07:55:10;;;;;;;;;;;;;;;18.18;70.51;101777.28;5086542;28;2185;-73
2021/03/04 07:57:44;;;;;;;;;;;;;;;18.11;70.60;101784.56;5082283;28;1574;-78
2021/03/04 08:00:10;;;;;;;;;;;;;;;18.00;71.72;101784.94;5063548;28;1295;-75
2021/03/04 08:02:37;;;;;;;;;;;;;;;17.95;72.45;101789.56;5085212;28;1210;-75
2021/03/04 08:05:04;;;;;;;;;;;;;;;17.93;73.02;101783.44;5069547;28;1434;-74
2021/03/04 08:07:30;;;;;;;;;;;;;;;17.93;73.76;101788.72;5069407;28;1254;-76
2021/03/04 08:10:07;;;;;;;;;;;;;;;17.94;73.83;101790.47;5069244;28;1354;-76
2021/03/04 08:12:51;;;;;;;;;;;;;;;17.95;73.66;101786.06;5088321;28;1768;-76
2021/03/04 08:15:19;;;;;;;;;;;;;;;17.94;73.98;101785.19;5087699;28;1910;-75
2021/03/04 08:17:45;;;;;;;;;;;;;;;17.94;74.06;101786.97;5088157;28;1099;-75
2021/03/04 08:20:16;;;;;;;;;;;;;;;17.94;74.02;101785.19;5087766;28;1326;-75
2021/03/04 08:22:43;;;;;;;;;;;;;;;17.93;73.88;101791.38;5069725;28;963;-76
2021/03/04 08:25:13;;;;;;;;;;;;;;;17.94;73.81;101782.56;5081649;28;1216;-76
2021/03/04 08:27:42;;;;;;;;;;;;;;;17.95;73.92;101789.56;5067843;28;899;-75
2021/03/04 08:30:09;;;;;;;;;;;;;;;17.95;73.88;101792.19;5073614;28;1385;-75
2021/03/04 08:32:36;;;;;;;;;;;;;;;17.94;73.63;101793.09;5049037;28;1220;-76
2021/03/04 08:35:14;;;;;;;;;;;;;;;17.94;73.81;101792.22;5067543;28;1288;-76
2021/03/04 08:37:41;;;;;;;;;;;;;;;17.93;73.69;101794.00;5079446;28;1705;-77
2021/03/04 08:40:07;;;;;;;;;;;;;;;17.93;73.27;101788.72;5069505;28;1248;-77
2021/03/04 08:42:34;;;;;;;;;;;;;;;17.94;73.42;101793.09;5069199;28;1074;-76
2021/03/04 08:45:00;;;;;;;;;;;;;;;17.93;73.33;101788.72;5087212;28;1376;-75
2021/03/04 08:47:26;;;;;;;;;;;;;;;17.93;73.24;101791.38;5087657;28;850;-75
2021/03/04 08:49:57;;;;;;;;;;;;;;;17.94;73.17;101793.09;5083036;28;1390;-75
2021/03/04 08:52:28;;;;;;;;;;;;;;;17.93;72.84;101779.97;5067368;28;814;-75
2021/03/04 08:54:55;;;;;;;;;;;;;;;17.94;72.99;101784.31;5067624;28;1313;-77
2021/03/04 08:57:25;;;;;;;;;;;;;;;17.93;72.84;101786.09;5067154;28;1886;-77
2021/03/04 09:00:10;;;;;;;;;;;;;;;17.92;72.52;101787.03;5074855;28;1603;-76
2021/03/04 09:02:45;;;;;;;;;;;;;;;17.92;72.56;101778.25;5081905;28;1549;-76
2021/03/04 09:05:15;;;;;;;;;;;;;;;17.92;72.39;101772.97;5086663;28;1592;-76
2021/03/04 09:07:43;;;;;;;;;;;;;;;17.92;72.30;101779.13;5087394;28;1591;-75
2021/03/04 09:10:09;;;;;;;;;;;;;;;17.92;72.15;101776.50;5071018;28;1267;-74
2021/03/04 09:12:41;;;;;;;;;;;;;;;17.94;71.84;101769.38;5073376;28;1626;-75
2021/03/04 09:15:10;;;;;;;;;;;;;;;17.97;71.42;101774.53;5078423;28;1979;-75
2021/03/04 09:17:44;;;;;;;;;;;;;;;18.03;71.41;101769.03;5103245;28;1476;-74
2021/03/04 09:20:14;;;;;;;;;;;;;;;18.07;71.18;101771.53;5069248;28;1303;-75
2021/03/04 09:22:44;;;;;;;;;;;;;;;18.09;71.25;101772.38;5091314;28;1140;-74
2021/03/04 09:25:12;;;;;;;;;;;;;;;18.12;71.15;101777.53;5072750;28;1291;-75
2021/03/04 09:27:39;;;;;;;;;;;;;;;18.21;70.66;101774.53;5090381;28;1038;-70
2021/03/04 09:30:07;;;;;;;;;;;;;;;18.20;70.05;101768.38;5096429;28;1260;-71
2021/03/04 09:32:35;;;;;;;;;;;;;;;18.20;69.69;101770.16;5110958;28;813;-72
2021/03/04 09:35:12;;;;;;;;;;;;;;;18.21;69.58;101771.91;5094059;28;1588;-71
2021/03/04 09:37:38;;;;;;;;;;;;;;;18.22;69.79;101768.31;5072387;28;1218;-70
2021/03/04 09:40:08;;;;;;;;;;;;;;;18.27;69.96;101758.47;5096735;28;1366;-69
2021/03/04 09:42:38;;;;;;;;;;;;;;;18.26;70.24;101764.66;5111009;28;786;-70
2021/03/04 09:45:08;;;;;;;;;;;;;;;18.35;69.59;101769.56;5095299;28;1276;-71
2021/03/04 09:47:35;;;;;;;;;;;;;;;18.29;69.92;101765.41;5052108;28;790;-71
2021/03/04 09:50:26;;;;;;;;;;;;;;;18.32;69.84;101756.50;5063169;28;1315;-71
2021/03/04 09:52:59;;;;;;;;;;;;;;;18.27;69.63;101756.66;5093703;28;1543;-70
2021/03/04 09:55:26;;;;;;;;;;;;;;;18.24;69.42;101754.16;5091610;28;1985;-68
2021/03/04 09:57:53;;;;;;;;;;;;;;;18.26;69.50;101759.38;5071967;28;1125;-69
2021/03/04 10:00:20;;;;;;;;;;;;;;;18.24;69.35;101758.59;5079581;28;1497;-69
2021/03/04 10:02:48;;;;;;;;;;;;;;;18.24;69.13;101759.41;5092563;28;857;-69
2021/03/04 10:05:19;;;;;;;;;;;;;;;18.25;69.30;101747.09;5091830;28;1279;-71
2021/03/04 10:07:46;;;;;;;;;;;;;;;18.26;69.37;101754.09;5105114;28;1571;-68
2021/03/04 10:10:15;;;;;;;;;;;;;;;18.25;69.49;101742.69;5085243;28;1379;-70
2021/03/04 10:12:56;;;;;;;;;;;;;;;18.26;68.95;101739.13;5090436;28;1183;-70
2021/03/04 10:15:26;;;;;;;;;;;;;;;18.27;69.24;101746.13;5079579;28;1905;-71
2021/03/04 10:17:52;;;;;;;;;;;;;;;18.29;69.35;101741.66;5091763;28;1094;-72
2021/03/04 10:20:19;;;;;;;;;;;;;;;18.28;69.36;101737.28;5083552;28;1319;-70
2021/03/04 10:22:47;;;;;;;;;;;;;;;18.28;69.12;101737.28;5091366;28;1325;-72
2021/03/04 10:25:14;;;;;;;;;;;;;;;18.29;69.29;101736.38;5091911;28;1228;-71
2021/03/04 10:27:41;;;;;;;;;;;;;;;18.29;69.29;101730.25;5110316;28;1176;-71
2021/03/04 10:30:08;;;;;;;;;;;;;;;18.32;69.38;101724.84;5097753;28;1280;-70
2021/03/04 10:32:35;;;;;;;;;;;;;;;18.32;69.31;101723.06;5069754;28;805;-71
2021/03/04 10:35:04;;;;;;;;;;;;;;;18.34;69.34;101730.91;5069270;28;1295;-70
2021/03/04 10:37:31;;;;;;;;;;;;;;;18.32;69.07;101720.44;5034775;28;1975;-69
2021/03/04 10:39:57;;;;;;;;;;;;;;;18.32;69.14;101720.44;5078567;28;1271;-69
2021/03/04 10:42:24;;;;;;;;;;;;;;;18.35;69.07;101712.41;5110186;28;778;-69
2021/03/04 10:44:53;;;;;;;;;;;;;;;18.36;68.65;101716.72;5105164;28;1209;-70
2021/03/04 10:47:20;;;;;;;;;;;;;;;18.35;68.79;101704.47;5109656;28;829;-71
2021/03/04 10:49:46;;;;;;;;;;;;;;;18.38;69.04;101711.41;5109482;28;980;-71
2021/03/04 10:52:12;;;;;;;;;;;;;;;18.36;68.78;101703.53;5109507;28;1432;-70
2021/03/04 10:54:39;;;;;;;;;;;;;;;18.38;68.98;101703.50;5109348;28;1098;-70
2021/03/04 10:57:05;;;;;;;;;;;;;;;18.40;68.84;101694.59;5109881;28;1979;-70
2021/03/04 10:59:31;;;;;;;;;;;;;;;18.43;68.91;101696.25;5108944;28;1309;-70
2021/03/04 11:01:58;;;;;;;;;;;;;;;18.45;68.86;101683.88;5110070;28;1303;-71
2021/03/04 11:04:24;;;;;;;;;;;;;;;18.46;69.05;101682.94;5091100;28;1389;-72
2021/03/04 11:06:50;;;;;;;;;;;;;;;18.47;68.88;101676.75;5091105;28;1435;-74
2021/03/04 11:09:37;;;;;;;;;;;;;;;18.47;68.84;101677.59;5065296;28;1218;-69
2021/03/04 11:12:03;;;;;;;;;;;;;;;18.55;66.96;101674.66;5071198;28;1360;-73
2021/03/04 11:14:30;;;;;;;;;;;;;;;18.52;67.29;101664.25;5088473;28;996;-71
2021/03/04 11:16:56;;;;;;;;;;;;;;;18.49;67.87;101667.88;5088727;28;1977;-74
2021/03/04 11:19:22;;;;;;;;;;;;;;;18.46;67.91;101662.69;5088935;28;778;-75
2021/03/04 11:21:49;;;;;;;;;;;;;;;18.47;68.61;101663.53;5088643;28;1328;-74
2021/03/04 11:24:15;;;;;;;;;;;;;;;18.47;68.69;101666.19;5070332;28;1155;-72
2021/03/04 11:26:41;;;;;;;;;;;;;;;18.46;68.74;101659.19;5088289;28;1390;-75
2021/03/04 11:29:07;;;;;;;;;;;;;;;18.47;68.75;101663.53;5088992;28;1272;-73
2021/03/04 11:31:34;;;;;;;;;;;;;;;18.45;68.91;101654.84;5088376;28;1373;-73
2021/03/04 11:34:02;;;;;;;;;;;;;;;18.45;68.97;101646.94;5074130;28;1092;-72
2021/03/04 11:36:29;;;;;;;;;;;;;;;18.46;68.83;101646.00;5108785;28;1906;-73
2021/03/04 11:38:56;;;;;;;;;;;;;;;18.46;68.96;101646.00;5108000;28;1201;-71
2021/03/04 11:41:22;;;;;;;;;;;;;;;18.46;68.88;101641.59;5108356;28;1358;-73
2021/03/04 11:43:55;;;;;;;;;;;;;;;18.47;68.86;101637.16;5091449;28;1177;-71
2021/03/04 11:46:21;;;;;;;;;;;;;;;18.46;68.70;101636.31;5086257;28;1275;-73
2021/03/04 11:48:49;;;;;;;;;;;;;;;18.54;68.57;101628.13;5108772;28;1147;-70
2021/03/04 11:51:16;;;;;;;;;;;;;;;18.60;67.69;101627.84;5108211;28;1314;-72
2021/03/04 11:53:43;;;;;;;;;;;;;;;18.58;68.53;101628.81;5108463;28;1126;-71
2021/03/04 11:56:20;;;;;;;;;;;;;;;18.54;68.57;101620.19;5065145;28;1902;-73
2021/03/04 11:58:46;;;;;;;;;;;;;;;18.53;68.52;101616.69;5070193;28;1484;-70
2021/03/04 12:01:13;;;;;;;;;;;;;;;18.54;68.54;101612.28;5103115;28;1360;-72
2021/03/04 12:03:39;;;;;;;;;;;;;;;18.54;68.66;101612.28;5108619;28;1184;-70
2021/03/04 12:06:05;;;;;;;;;;;;;;;18.56;68.19;101607.78;5073087;28;1627;-72
2021/03/04 12:08:32;;;;;;;;;;;;;;;18.56;68.17;101610.44;5102070;28;1485;-71
2021/03/04 12:11:18;;;;;;;;;;;;;;;18.58;68.42;101605.06;5083506;28;1353;-72
2021/03/04 12:13:44;;;;;;;;;;;;;;;18.57;68.27;101601.59;5088130;28;1063;-72
2021/03/04 12:16:11;;;;;;;;;;;;;;;18.57;68.32;101598.09;5072663;28;1918;-72
2021/03/04 12:18:38;;;;;;;;;;;;;;;18.58;68.22;101594.50;5068160;28;1035;-72
2021/03/04 12:21:04;;;;;;;;;;;;;;;18.57;68.29;101584.91;5067388;28;1295;-73
2021/03/04 12:23:31;;;;;;;;;;;;;;;18.58;68.46;101579.53;5049828;28;1084;-75
2021/03/04 12:25:58;;;;;;;;;;;;;;;18.58;68.27;101582.19;5067172;28;1296;-70
2021/03/04 12:28:41;;;;;;;;;;;;;;;18.59;68.34;101581.28;5077625;28;1522;-70
2021/03/04 12:31:07;;;;;;;;;;;;;;;18.59;67.95;101575.13;5102063;28;1288;-75
2021/03/04 12:33:38;;;;;;;;;;;;;;;18.59;68.09;101583.91;5108187;28;1063;-72
2021/03/04 12:36:05;;;;;;;;;;;;;;;18.61;68.18;101576.78;5093319;28;1984;-74
2021/03/04 12:38:31;;;;;;;;;;;;;;;18.60;67.87;101559.25;5052393;28;1329;-76
2021/03/04 12:40:58;;;;;;;;;;;;;;;18.60;68.13;101556.59;5068684;28;1311;-75
2021/03/04 12:43:27;;;;;;;;;;;;;;;18.59;68.01;101552.25;5070072;28;1039;-75
2021/03/04 12:45:54;;;;;;;;;;;;;;;18.59;67.08;101543.47;5074551;28;1275;-72
2021/03/04 12:48:22;;;;;;;;;;;;;;;18.59;66.94;101546.09;5077485;28;920;-72
2021/03/04 12:50:53;;;;;;;;;;;;;;;18.59;66.23;101536.41;5099574;28;1406;-71
2021/03/04 12:53:19;;;;;;;;;;;;;;;18.58;66.49;101539.09;5108109;28;1095;-72